sensor_id;sensor_type;location;lat;lon;timestamp;P1;P2;P0
56495;PMS5003;42804;55.762;38.084;2023-06-26T00:00:07;66.00;50.00;30.60
56495;PMS5003;42804;55.762;38.084;2023-06-26T00:02:35;68.40;54.40;34.20
56495;PMS5003;42804;55.762;38.084;2023-06-26T00:05:04;62.80;48.60;31.00
56495;PMS5003;42804;55.762;38.084;2023-06-26T00:07:32;61.60;48.80;29.00
56495;PMS5003;42804;55.762;38.084;2023-06-26T00:10:01;60.20;49.20;32.00
56495;PMS5003;42804;55.762;38.084;2023-06-26T00:12:32;62.00;49.20;32.20
56495;PMS5003;42804;55.762;38.084;2023-06-26T00:15:00;57.60;47.60;29.60
56495;PMS5003;42804;55.762;38.084;2023-06-26T00:17:30;59.80;48.60;31.20
56495;PMS5003;42804;55.762;38.084;2023-06-26T00:20:05;59.20;48.20;30.20
56495;PMS5003;42804;55.762;38.084;2023-06-26T00:22:38;59.40;49.20;32.00
56495;PMS5003;42804;55.762;38.084;2023-06-26T00:25:07;57.60;47.80;31.00
56495;PMS5003;42804;55.762;38.084;2023-06-26T00:27:37;56.00;44.60;29.40
56495;PMS5003;42804;55.762;38.084;2023-06-26T00:30:05;50.25;41.25;27.00
56495;PMS5003;42804;55.762;38.084;2023-06-26T00:32:35;55.40;46.20;29.80
56495;PMS5003;42804;55.762;38.084;2023-06-26T00:35:05;49.80;39.40;24.40
56495;PMS5003;42804;55.762;38.084;2023-06-26T00:37:33;53.60;44.00;28.20
56495;PMS5003;42804;55.762;38.084;2023-06-26T00:40:01;42.40;35.40;19.20
56495;PMS5003;42804;55.762;38.084;2023-06-26T00:42:32;54.40;43.20;28.40
56495;PMS5003;42804;55.762;38.084;2023-06-26T00:45:02;53.20;42.80;27.80
56495;PMS5003;42804;55.762;38.084;2023-06-26T00:47:30;49.50;41.75;27.00
56495;PMS5003;42804;55.762;38.084;2023-06-26T00:49:59;41.50;37.25;23.50
56495;PMS5003;42804;55.762;38.084;2023-06-26T00:52:28;53.60;40.60;26.40
56495;PMS5003;42804;55.762;38.084;2023-06-26T00:54:58;49.00;39.75;25.75
56495;PMS5003;42804;55.762;38.084;2023-06-26T00:57:28;41.75;37.00;25.75
56495;PMS5003;42804;55.762;38.084;2023-06-26T00:59:59;41.75;37.00;25.00
56495;PMS5003;42804;55.762;38.084;2023-06-26T01:02:31;50.50;41.50;26.50
56495;PMS5003;42804;55.762;38.084;2023-06-26T01:05:01;45.50;38.25;25.75
56495;PMS5003;42804;55.762;38.084;2023-06-26T01:07:30;41.50;36.50;22.75
56495;PMS5003;42804;55.762;38.084;2023-06-26T01:10:01;44.50;39.00;24.00
56495;PMS5003;42804;55.762;38.084;2023-06-26T01:12:30;49.75;42.25;26.50
56495;PMS5003;42804;55.762;38.084;2023-06-26T01:14:59;38.25;35.25;23.50
56495;PMS5003;42804;55.762;38.084;2023-06-26T01:17:30;43.75;37.00;24.00
56495;PMS5003;42804;55.762;38.084;2023-06-26T01:19:59;41.50;36.00;25.00
56495;PMS5003;42804;55.762;38.084;2023-06-26T01:22:31;43.75;39.25;24.25
56495;PMS5003;42804;55.762;38.084;2023-06-26T01:25:03;40.75;35.50;22.25
56495;PMS5003;42804;55.762;38.084;2023-06-26T01:27:38;41.25;37.00;24.00
56495;PMS5003;42804;55.762;38.084;2023-06-26T01:30:07;45.75;36.25;24.00
56495;PMS5003;42804;55.762;38.084;2023-06-26T01:32:36;45.25;36.75;23.75
56495;PMS5003;42804;55.762;38.084;2023-06-26T01:35:05;44.00;36.50;24.00
56495;PMS5003;42804;55.762;38.084;2023-06-26T01:37:33;42.00;37.50;24.00
56495;PMS5003;42804;55.762;38.084;2023-06-26T01:40:02;49.25;40.50;24.75
56495;PMS5003;42804;55.762;38.084;2023-06-26T01:42:32;48.50;39.75;25.25
56495;PMS5003;42804;55.762;38.084;2023-06-26T01:45:03;50.40;40.80;25.40
56495;PMS5003;42804;55.762;38.084;2023-06-26T01:47:35;48.20;39.60;25.00
56495;PMS5003;42804;55.762;38.084;2023-06-26T01:50:09;51.60;40.20;26.20
56495;PMS5003;42804;55.762;38.084;2023-06-26T01:52:40;53.40;42.60;27.00
56495;PMS5003;42804;55.762;38.084;2023-06-26T01:55:10;48.60;39.00;24.00
56495;PMS5003;42804;55.762;38.084;2023-06-26T01:57:41;55.00;44.40;27.60
56495;PMS5003;42804;55.762;38.084;2023-06-26T02:00:11;54.00;44.20;26.00
56495;PMS5003;42804;55.762;38.084;2023-06-26T02:02:41;51.00;39.40;26.00
56495;PMS5003;42804;55.762;38.084;2023-06-26T02:05:12;50.00;40.40;25.60
56495;PMS5003;42804;55.762;38.084;2023-06-26T02:07:42;48.20;40.00;26.40
56495;PMS5003;42804;55.762;38.084;2023-06-26T02:10:10;46.40;39.40;25.00
56495;PMS5003;42804;55.762;38.084;2023-06-26T02:12:39;50.00;41.60;25.80
56495;PMS5003;42804;55.762;38.084;2023-06-26T02:15:07;50.40;39.40;24.80
56495;PMS5003;42804;55.762;38.084;2023-06-26T02:17:37;48.60;40.40;25.00
56495;PMS5003;42804;55.762;38.084;2023-06-26T02:20:06;47.00;38.80;24.00
56495;PMS5003;42804;55.762;38.084;2023-06-26T02:22:36;42.20;37.00;24.20
56495;PMS5003;42804;55.762;38.084;2023-06-26T02:25:08;47.20;39.40;25.20
56495;PMS5003;42804;55.762;38.084;2023-06-26T02:27:37;43.80;38.40;24.60
56495;PMS5003;42804;55.762;38.084;2023-06-26T02:30:05;44.20;37.60;23.60
56495;PMS5003;42804;55.762;38.084;2023-06-26T02:32:36;42.00;37.00;23.00
56495;PMS5003;42804;55.762;38.084;2023-06-26T02:35:06;44.25;39.00;25.25
56495;PMS5003;42804;55.762;38.084;2023-06-26T02:37:34;50.00;39.75;24.50
56495;PMS5003;42804;55.762;38.084;2023-06-26T02:40:04;46.40;40.00;25.20
56495;PMS5003;42804;55.762;38.084;2023-06-26T02:42:33;42.40;36.80;22.40
56495;PMS5003;42804;55.762;38.084;2023-06-26T02:45:01;39.40;35.60;22.60
56495;PMS5003;42804;55.762;38.084;2023-06-26T02:47:31;38.50;35.25;21.00
56495;PMS5003;42804;55.762;38.084;2023-06-26T02:49:59;45.40;37.80;24.40
56495;PMS5003;42804;55.762;38.084;2023-06-26T02:52:36;45.25;37.25;23.50
56495;PMS5003;42804;55.762;38.084;2023-06-26T02:55:05;39.50;36.00;22.00
56495;PMS5003;42804;55.762;38.084;2023-06-26T02:57:33;36.75;32.75;21.50
56495;PMS5003;42804;55.762;38.084;2023-06-26T03:00:02;38.00;33.75;20.75
56495;PMS5003;42804;55.762;38.084;2023-06-26T03:02:41;33.25;32.00;21.25
56495;PMS5003;42804;55.762;38.084;2023-06-26T03:05:12;37.25;33.75;22.00
56495;PMS5003;42804;55.762;38.084;2023-06-26T03:07:42;34.25;32.50;21.00
56495;PMS5003;42804;55.762;38.084;2023-06-26T03:10:10;29.00;27.50;16.50
56495;PMS5003;42804;55.762;38.084;2023-06-26T03:12:38;36.50;32.25;21.50
56495;PMS5003;42804;55.762;38.084;2023-06-26T03:15:08;33.50;30.50;19.50
56495;PMS5003;42804;55.762;38.084;2023-06-26T03:17:38;30.25;29.00;19.50
56495;PMS5003;42804;55.762;38.084;2023-06-26T03:20:10;36.00;33.50;22.00
56495;PMS5003;42804;55.762;38.084;2023-06-26T03:22:49;31.00;30.00;19.50
56495;PMS5003;42804;55.762;38.084;2023-06-26T03:25:18;25.75;24.75;15.75
56495;PMS5003;42804;55.762;38.084;2023-06-26T03:27:47;30.50;27.25;18.50
56495;PMS5003;42804;55.762;38.084;2023-06-26T03:30:17;28.75;25.50;15.50
56495;PMS5003;42804;55.762;38.084;2023-06-26T03:32:49;27.25;25.00;17.50
56495;PMS5003;42804;55.762;38.084;2023-06-26T03:35:17;28.50;27.25;17.25
56495;PMS5003;42804;55.762;38.084;2023-06-26T03:37:48;21.75;20.75;14.50
56495;PMS5003;42804;55.762;38.084;2023-06-26T03:40:18;30.50;28.25;17.25
56495;PMS5003;42804;55.762;38.084;2023-06-26T03:42:49;28.00;26.50;18.00
56495;PMS5003;42804;55.762;38.084;2023-06-26T03:45:18;28.75;25.75;16.25
56495;PMS5003;42804;55.762;38.084;2023-06-26T03:47:48;28.75;27.00;17.25
56495;PMS5003;42804;55.762;38.084;2023-06-26T03:50:16;30.00;28.75;18.25
56495;PMS5003;42804;55.762;38.084;2023-06-26T03:52:45;30.75;29.75;19.75
56495;PMS5003;42804;55.762;38.084;2023-06-26T03:55:13;32.50;29.25;20.50
56495;PMS5003;42804;55.762;38.084;2023-06-26T03:57:46;32.00;29.25;19.00
56495;PMS5003;42804;55.762;38.084;2023-06-26T04:00:15;26.50;22.00;13.50
56495;PMS5003;42804;55.762;38.084;2023-06-26T04:02:43;34.00;32.50;21.25
56495;PMS5003;42804;55.762;38.084;2023-06-26T04:05:12;30.00;30.00;19.25
56495;PMS5003;42804;55.762;38.084;2023-06-26T04:07:41;28.00;26.75;19.00
56495;PMS5003;42804;55.762;38.084;2023-06-26T04:10:09;29.25;28.50;19.00
56495;PMS5003;42804;55.762;38.084;2023-06-26T04:12:38;31.75;30.25;20.00
56495;PMS5003;42804;55.762;38.084;2023-06-26T04:15:08;29.50;28.00;19.00
56495;PMS5003;42804;55.762;38.084;2023-06-26T04:17:36;30.50;29.75;19.75
56495;PMS5003;42804;55.762;38.084;2023-06-26T04:20:05;28.00;27.50;18.50
56495;PMS5003;42804;55.762;38.084;2023-06-26T04:22:34;19.50;18.50;12.75
56495;PMS5003;42804;55.762;38.084;2023-06-26T04:25:03;26.50;25.25;17.00
56495;PMS5003;42804;55.762;38.084;2023-06-26T04:27:31;22.50;22.50;14.50
56495;PMS5003;42804;55.762;38.084;2023-06-26T04:30:02;25.75;24.50;17.75
56495;PMS5003;42804;55.762;38.084;2023-06-26T04:32:34;24.00;22.75;15.50
56495;PMS5003;42804;55.762;38.084;2023-06-26T04:35:03;23.75;23.50;17.50
56495;PMS5003;42804;55.762;38.084;2023-06-26T04:37:31;26.75;24.00;17.25
56495;PMS5003;42804;55.762;38.084;2023-06-26T04:39:59;25.50;24.25;15.75
56495;PMS5003;42804;55.762;38.084;2023-06-26T04:42:29;22.75;22.75;16.00
56495;PMS5003;42804;55.762;38.084;2023-06-26T04:44:57;25.25;24.25;17.50
56495;PMS5003;42804;55.762;38.084;2023-06-26T04:47:25;23.50;22.75;16.00
56495;PMS5003;42804;55.762;38.084;2023-06-26T04:49:55;27.75;24.50;17.00
56495;PMS5003;42804;55.762;38.084;2023-06-26T04:52:23;23.00;21.50;15.25
56495;PMS5003;42804;55.762;38.084;2023-06-26T04:54:51;23.25;21.75;13.50
56495;PMS5003;42804;55.762;38.084;2023-06-26T04:57:19;19.75;19.75;13.50
56495;PMS5003;42804;55.762;38.084;2023-06-26T04:59:48;18.50;17.50;13.50
56495;PMS5003;42804;55.762;38.084;2023-06-26T05:02:16;21.00;21.00;12.75
56495;PMS5003;42804;55.762;38.084;2023-06-26T05:04:44;20.25;19.00;12.00
56495;PMS5003;42804;55.762;38.084;2023-06-26T05:07:15;14.75;14.75;9.50
56495;PMS5003;42804;55.762;38.084;2023-06-26T05:09:43;10.75;9.75;7.50
56495;PMS5003;42804;55.762;38.084;2023-06-26T05:12:11;18.25;18.25;11.00
56495;PMS5003;42804;55.762;38.084;2023-06-26T05:14:39;21.00;18.50;11.00
56495;PMS5003;42804;55.762;38.084;2023-06-26T05:17:26;17.00;16.50;11.00
56495;PMS5003;42804;55.762;38.084;2023-06-26T05:19:54;13.75;13.25;9.00
56495;PMS5003;42804;55.762;38.084;2023-06-26T05:22:24;15.25;15.25;9.25
56495;PMS5003;42804;55.762;38.084;2023-06-26T05:24:54;18.50;17.75;12.75
56495;PMS5003;42804;55.762;38.084;2023-06-26T05:27:23;9.00;8.50;5.00
56495;PMS5003;42804;55.762;38.084;2023-06-26T05:29:51;13.00;13.00;10.25
56495;PMS5003;42804;55.762;38.084;2023-06-26T05:32:20;18.25;17.00;10.25
56495;PMS5003;42804;55.762;38.084;2023-06-26T05:35:07;16.00;13.00;9.25
56495;PMS5003;42804;55.762;38.084;2023-06-26T05:37:36;15.25;15.00;9.25
56495;PMS5003;42804;55.762;38.084;2023-06-26T05:40:05;12.75;11.50;8.00
56495;PMS5003;42804;55.762;38.084;2023-06-26T05:42:34;15.25;15.00;9.25
56495;PMS5003;42804;55.762;38.084;2023-06-26T05:45:03;20.50;19.00;13.00
56495;PMS5003;42804;55.762;38.084;2023-06-26T05:47:31;19.50;19.25;14.00
56495;PMS5003;42804;55.762;38.084;2023-06-26T05:49:59;23.25;20.00;12.50
56495;PMS5003;42804;55.762;38.084;2023-06-26T05:55:17;18.75;18.75;14.00
56495;PMS5003;42804;55.762;38.084;2023-06-26T05:58:04;15.00;14.25;9.00
56495;PMS5003;42804;55.762;38.084;2023-06-26T06:00:32;18.75;17.50;9.50
56495;PMS5003;42804;55.762;38.084;2023-06-26T06:03:01;17.00;17.00;11.50
56495;PMS5003;42804;55.762;38.084;2023-06-26T06:05:29;19.00;17.75;13.00
56495;PMS5003;42804;55.762;38.084;2023-06-26T06:07:57;19.00;19.00;11.75
56495;PMS5003;42804;55.762;38.084;2023-06-26T06:10:27;14.25;12.00;9.00
56495;PMS5003;42804;55.762;38.084;2023-06-26T06:13:14;19.00;18.00;11.50
56495;PMS5003;42804;55.762;38.084;2023-06-26T06:16:00;18.25;17.75;11.75
56495;PMS5003;42804;55.762;38.084;2023-06-26T06:18:28;16.00;16.00;12.25
56495;PMS5003;42804;55.762;38.084;2023-06-26T06:20:56;17.00;16.50;12.00
56495;PMS5003;42804;55.762;38.084;2023-06-26T06:23:25;18.00;17.75;13.00
56495;PMS5003;42804;55.762;38.084;2023-06-26T06:25:54;19.75;18.75;14.00
56495;PMS5003;42804;55.762;38.084;2023-06-26T06:31:27;16.00;16.00;10.50
56495;PMS5003;42804;55.762;38.084;2023-06-26T06:36:42;18.00;16.75;10.75
56495;PMS5003;42804;55.762;38.084;2023-06-26T06:39:10;15.50;15.50;10.00
56495;PMS5003;42804;55.762;38.084;2023-06-26T06:41:40;17.50;17.50;11.75
56495;PMS5003;42804;55.762;38.084;2023-06-26T06:44:08;16.25;15.75;9.25
56495;PMS5003;42804;55.762;38.084;2023-06-26T06:52:29;15.50;14.50;9.75
56495;PMS5003;42804;55.762;38.084;2023-06-26T06:58:03;13.50;12.25;8.50
56495;PMS5003;42804;55.762;38.084;2023-06-26T07:00:50;13.25;11.00;8.00
56495;PMS5003;42804;55.762;38.084;2023-06-26T07:03:19;10.50;9.50;8.75
56495;PMS5003;42804;55.762;38.084;2023-06-26T07:06:04;9.25;8.75;7.00
56495;PMS5003;42804;55.762;38.084;2023-06-26T07:08:33;12.25;12.00;8.50
56495;PMS5003;42804;55.762;38.084;2023-06-26T07:11:02;17.25;16.50;10.00
56495;PMS5003;42804;55.762;38.084;2023-06-26T07:13:31;9.50;9.50;6.00
56495;PMS5003;42804;55.762;38.084;2023-06-26T07:16:00;16.25;14.50;9.00
56495;PMS5003;42804;55.762;38.084;2023-06-26T07:18:28;11.50;10.00;6.00
56495;PMS5003;42804;55.762;38.084;2023-06-26T07:20:56;12.75;11.00;7.50
56495;PMS5003;42804;55.762;38.084;2023-06-26T07:23:24;12.25;11.75;7.00
56495;PMS5003;42804;55.762;38.084;2023-06-26T07:25:54;11.50;11.50;8.50
56495;PMS5003;42804;55.762;38.084;2023-06-26T07:28:42;12.50;12.50;9.00
56495;PMS5003;42804;55.762;38.084;2023-06-26T07:31:29;10.75;10.75;7.25
56495;PMS5003;42804;55.762;38.084;2023-06-26T07:34:00;14.00;14.00;7.50
56495;PMS5003;42804;55.762;38.084;2023-06-26T07:36:29;11.50;11.00;7.75
56495;PMS5003;42804;55.762;38.084;2023-06-26T07:38:57;12.00;12.00;8.00
56495;PMS5003;42804;55.762;38.084;2023-06-26T07:41:25;12.75;12.25;8.00
56495;PMS5003;42804;55.762;38.084;2023-06-26T07:43:55;11.25;10.00;7.25
56495;PMS5003;42804;55.762;38.084;2023-06-26T07:49:28;9.50;8.25;3.25
56495;PMS5003;42804;55.762;38.084;2023-06-26T07:51:56;11.25;10.50;7.00
56495;PMS5003;42804;55.762;38.084;2023-06-26T07:54:24;13.75;12.50;9.00
56495;PMS5003;42804;55.762;38.084;2023-06-26T07:56:53;11.25;11.00;7.25
56495;PMS5003;42804;55.762;38.084;2023-06-26T08:02:10;11.50;11.50;8.25
56495;PMS5003;42804;55.762;38.084;2023-06-26T08:04:38;12.75;12.75;9.25
56495;PMS5003;42804;55.762;38.084;2023-06-26T08:07:07;12.75;12.00;9.25
56495;PMS5003;42804;55.762;38.084;2023-06-26T08:09:53;11.00;11.00;8.00
56495;PMS5003;42804;55.762;38.084;2023-06-26T08:12:22;12.33;12.33;8.33
56495;PMS5003;42804;55.762;38.084;2023-06-26T08:14:50;13.50;13.25;9.25
56495;PMS5003;42804;55.762;38.084;2023-06-26T08:17:38;5.75;5.75;4.00
56495;PMS5003;42804;55.762;38.084;2023-06-26T08:23:10;11.00;11.00;7.00
56495;PMS5003;42804;55.762;38.084;2023-06-26T08:25:38;10.50;10.25;7.00
56495;PMS5003;42804;55.762;38.084;2023-06-26T08:28:06;10.40;9.00;6.00
56495;PMS5003;42804;55.762;38.084;2023-06-26T08:30:35;12.00;10.67;8.33
56495;PMS5003;42804;55.762;38.084;2023-06-26T08:33:23;10.75;9.75;6.00
56495;PMS5003;42804;55.762;38.084;2023-06-26T08:35:51;15.25;14.50;10.00
56495;PMS5003;42804;55.762;38.084;2023-06-26T08:38:37;10.50;10.00;7.00
56495;PMS5003;42804;55.762;38.084;2023-06-26T08:41:07;7.75;7.75;7.00
56495;PMS5003;42804;55.762;38.084;2023-06-26T08:43:36;7.25;7.00;5.00
56495;PMS5003;42804;55.762;38.084;2023-06-26T08:46:04;9.75;9.50;6.00
56495;PMS5003;42804;55.762;38.084;2023-06-26T08:48:54;9.75;9.50;5.75
56495;PMS5003;42804;55.762;38.084;2023-06-26T08:51:40;9.50;9.50;7.50
56495;PMS5003;42804;55.762;38.084;2023-06-26T08:54:28;9.75;9.25;6.00
56495;PMS5003;42804;55.762;38.084;2023-06-26T08:57:18;12.25;11.75;8.25
56495;PMS5003;42804;55.762;38.084;2023-06-26T08:59:47;9.50;9.00;6.50
56495;PMS5003;42804;55.762;38.084;2023-06-26T09:02:15;8.50;8.00;5.25
56495;PMS5003;42804;55.762;38.084;2023-06-26T09:11:14;12.25;11.25;7.75
56495;PMS5003;42804;55.762;38.084;2023-06-26T09:14:00;12.25;12.25;7.00
56495;PMS5003;42804;55.762;38.084;2023-06-26T09:19:39;9.50;8.50;5.75
56495;PMS5003;42804;55.762;38.084;2023-06-26T09:22:10;10.75;10.75;7.25
56495;PMS5003;42804;55.762;38.084;2023-06-26T09:24:58;9.00;9.00;5.25
56495;PMS5003;42804;55.762;38.084;2023-06-26T09:27:28;10.25;10.00;7.00
56495;PMS5003;42804;55.762;38.084;2023-06-26T09:29:57;11.00;11.00;6.75
56495;PMS5003;42804;55.762;38.084;2023-06-26T09:32:26;10.75;10.25;7.00
56495;PMS5003;42804;55.762;38.084;2023-06-26T09:34:55;10.00;9.75;6.00
56495;PMS5003;42804;55.762;38.084;2023-06-26T09:37:23;10.50;10.25;7.00
56495;PMS5003;42804;55.762;38.084;2023-06-26T09:39:52;8.50;7.75;3.75
56495;PMS5003;42804;55.762;38.084;2023-06-26T09:42:20;9.75;9.75;6.75
56495;PMS5003;42804;55.762;38.084;2023-06-26T09:44:50;12.25;11.75;8.25
56495;PMS5003;42804;55.762;38.084;2023-06-26T09:47:19;9.00;9.00;8.00
56495;PMS5003;42804;55.762;38.084;2023-06-26T09:49:49;10.50;10.00;6.25
56495;PMS5003;42804;55.762;38.084;2023-06-26T09:52:19;11.50;11.00;8.00
56495;PMS5003;42804;55.762;38.084;2023-06-26T09:57:36;11.25;10.50;7.50
56495;PMS5003;42804;55.762;38.084;2023-06-26T10:00:06;11.50;11.00;7.75
56495;PMS5003;42804;55.762;38.084;2023-06-26T10:02:44;10.75;10.75;8.50
56495;PMS5003;42804;55.762;38.084;2023-06-26T10:05:13;9.50;9.00;7.25
56495;PMS5003;42804;55.762;38.084;2023-06-26T10:07:58;12.75;12.00;9.00
56495;PMS5003;42804;55.762;38.084;2023-06-26T10:10:27;11.00;10.00;8.00
56495;PMS5003;42804;55.762;38.084;2023-06-26T10:12:58;11.00;10.50;7.00
56495;PMS5003;42804;55.762;38.084;2023-06-26T10:15:28;8.00;8.00;5.25
56495;PMS5003;42804;55.762;38.084;2023-06-26T10:17:58;13.00;12.00;8.50
56495;PMS5003;42804;55.762;38.084;2023-06-26T10:20:27;11.00;11.00;8.00
56495;PMS5003;42804;55.762;38.084;2023-06-26T10:22:55;10.00;10.00;6.50
56495;PMS5003;42804;55.762;38.084;2023-06-26T10:25:26;12.50;11.25;7.25
56495;PMS5003;42804;55.762;38.084;2023-06-26T10:28:12;11.50;11.50;7.50
56495;PMS5003;42804;55.762;38.084;2023-06-26T10:30:42;10.50;10.00;6.50
56495;PMS5003;42804;55.762;38.084;2023-06-26T10:33:12;11.00;11.00;7.25
56495;PMS5003;42804;55.762;38.084;2023-06-26T10:35:42;7.25;7.00;4.75
56495;PMS5003;42804;55.762;38.084;2023-06-26T10:38:10;8.00;8.00;7.00
56495;PMS5003;42804;55.762;38.084;2023-06-26T10:40:42;10.00;10.00;6.75
56495;PMS5003;42804;55.762;38.084;2023-06-26T10:43:12;9.50;9.50;7.00
56495;PMS5003;42804;55.762;38.084;2023-06-26T10:45:44;11.75;11.75;7.00
56495;PMS5003;42804;55.762;38.084;2023-06-26T10:48:14;11.50;11.25;7.25
56495;PMS5003;42804;55.762;38.084;2023-06-26T10:50:43;10.25;10.00;7.00
56495;PMS5003;42804;55.762;38.084;2023-06-26T10:53:14;11.50;10.75;6.00
56495;PMS5003;42804;55.762;38.084;2023-06-26T10:55:48;7.50;7.25;5.50
56495;PMS5003;42804;55.762;38.084;2023-06-26T11:01:16;13.00;12.00;5.50
56495;PMS5003;42804;55.762;38.084;2023-06-26T11:03:46;12.50;12.50;8.00
56495;PMS5003;42804;55.762;38.084;2023-06-26T11:06:19;11.00;10.00;6.00
56495;PMS5003;42804;55.762;38.084;2023-06-26T11:08:48;9.00;9.00;7.00
56495;PMS5003;42804;55.762;38.084;2023-06-26T11:11:17;9.50;9.50;7.25
56495;PMS5003;42804;55.762;38.084;2023-06-26T11:14:03;10.25;10.25;7.00
56495;PMS5003;42804;55.762;38.084;2023-06-26T11:16:51;10.25;9.75;6.50
56495;PMS5003;42804;55.762;38.084;2023-06-26T11:19:36;9.50;9.50;7.00
56495;PMS5003;42804;55.762;38.084;2023-06-26T11:22:10;9.75;9.75;7.00
56495;PMS5003;42804;55.762;38.084;2023-06-26T11:24:40;10.00;10.00;6.00
56495;PMS5003;42804;55.762;38.084;2023-06-26T11:27:09;6.50;6.50;5.50
56495;PMS5003;42804;55.762;38.084;2023-06-26T11:29:38;10.50;10.00;7.75
56495;PMS5003;42804;55.762;38.084;2023-06-26T11:32:16;11.25;11.25;6.25
56495;PMS5003;42804;55.762;38.084;2023-06-26T11:34:45;11.00;10.00;7.00
56495;PMS5003;42804;55.762;38.084;2023-06-26T11:37:16;9.00;8.75;5.75
56495;PMS5003;42804;55.762;38.084;2023-06-26T11:39:44;11.25;11.25;7.00
56495;PMS5003;42804;55.762;38.084;2023-06-26T11:42:12;9.00;8.75;6.00
56495;PMS5003;42804;55.762;38.084;2023-06-26T11:44:41;12.25;12.25;8.00
56495;PMS5003;42804;55.762;38.084;2023-06-26T11:47:13;12.25;12.00;8.50
56495;PMS5003;42804;55.762;38.084;2023-06-26T11:49:43;9.75;9.25;7.00
56495;PMS5003;42804;55.762;38.084;2023-06-26T11:52:12;9.50;9.50;6.00
56495;PMS5003;42804;55.762;38.084;2023-06-26T11:54:41;13.75;12.50;8.00
56495;PMS5003;42804;55.762;38.084;2023-06-26T11:57:13;11.00;10.25;8.00
56495;PMS5003;42804;55.762;38.084;2023-06-26T12:00:10;9.25;9.00;5.00
56495;PMS5003;42804;55.762;38.084;2023-06-26T12:02:41;12.00;11.25;8.00
56495;PMS5003;42804;55.762;38.084;2023-06-26T12:05:24;10.00;9.75;7.25
56495;PMS5003;42804;55.762;38.084;2023-06-26T12:07:54;0.75;0.75;0.00
56495;PMS5003;42804;55.762;38.084;2023-06-26T12:10:26;11.00;11.00;7.50
56495;PMS5003;42804;55.762;38.084;2023-06-26T12:12:54;12.25;12.00;8.00
56495;PMS5003;42804;55.762;38.084;2023-06-26T12:15:25;12.00;11.75;8.00
56495;PMS5003;42804;55.762;38.084;2023-06-26T12:17:54;11.25;11.25;7.25
56495;PMS5003;42804;55.762;38.084;2023-06-26T12:20:24;11.75;11.25;7.75
56495;PMS5003;42804;55.762;38.084;2023-06-26T12:22:53;11.00;11.00;6.50
56495;PMS5003;42804;55.762;38.084;2023-06-26T12:25:39;11.00;11.00;6.00
56495;PMS5003;42804;55.762;38.084;2023-06-26T12:28:15;10.75;10.25;7.00
56495;PMS5003;42804;55.762;38.084;2023-06-26T12:30:45;8.25;8.25;5.25
56495;PMS5003;42804;55.762;38.084;2023-06-26T12:33:14;11.75;11.75;7.00
56495;PMS5003;42804;55.762;38.084;2023-06-26T12:35:44;14.50;13.75;9.00
56495;PMS5003;42804;55.762;38.084;2023-06-26T12:38:17;10.00;9.25;7.00
56495;PMS5003;42804;55.762;38.084;2023-06-26T12:43:44;9.00;9.00;6.50
56495;PMS5003;42804;55.762;38.084;2023-06-26T12:46:16;8.00;8.00;6.00
56495;PMS5003;42804;55.762;38.084;2023-06-26T12:49:13;10.00;10.00;7.00
56495;PMS5003;42804;55.762;38.084;2023-06-26T12:52:15;11.00;11.00;7.50
56495;PMS5003;42804;55.762;38.084;2023-06-26T12:54:56;10.00;10.00;7.00
56495;PMS5003;42804;55.762;38.084;2023-06-26T12:57:27;9.50;9.50;6.25
56495;PMS5003;42804;55.762;38.084;2023-06-26T12:59:56;12.75;12.50;8.25
56495;PMS5003;42804;55.762;38.084;2023-06-26T13:02:30;7.75;7.75;4.00
56495;PMS5003;42804;55.762;38.084;2023-06-26T13:05:19;11.00;10.75;7.75
56495;PMS5003;42804;55.762;38.084;2023-06-26T13:07:53;10.00;9.75;8.00
56495;PMS5003;42804;55.762;38.084;2023-06-26T13:10:25;10.75;10.75;8.00
56495;PMS5003;42804;55.762;38.084;2023-06-26T13:13:00;8.75;8.75;6.25
56495;PMS5003;42804;55.762;38.084;2023-06-26T13:15:31;9.00;9.00;6.00
56495;PMS5003;42804;55.762;38.084;2023-06-26T13:18:01;12.00;11.75;8.00
56495;PMS5003;42804;55.762;38.084;2023-06-26T13:20:49;11.75;11.75;8.00
56495;PMS5003;42804;55.762;38.084;2023-06-26T13:23:22;11.00;11.00;8.00
56495;PMS5003;42804;55.762;38.084;2023-06-26T13:25:53;8.50;8.25;7.00
56495;PMS5003;42804;55.762;38.084;2023-06-26T13:28:37;11.00;11.00;7.00
56495;PMS5003;42804;55.762;38.084;2023-06-26T13:31:11;12.75;11.75;9.25
56495;PMS5003;42804;55.762;38.084;2023-06-26T13:33:52;12.00;10.50;7.25
56495;PMS5003;42804;55.762;38.084;2023-06-26T13:36:24;9.75;9.50;7.00
56495;PMS5003;42804;55.762;38.084;2023-06-26T13:39:00;11.25;10.75;7.50
56495;PMS5003;42804;55.762;38.084;2023-06-26T13:41:28;10.25;9.75;7.25
56495;PMS5003;42804;55.762;38.084;2023-06-26T13:43:57;7.50;7.00;4.25
56495;PMS5003;42804;55.762;38.084;2023-06-26T13:46:46;9.00;9.00;6.75
56495;PMS5003;42804;55.762;38.084;2023-06-26T13:49:21;8.50;7.25;6.00
56495;PMS5003;42804;55.762;38.084;2023-06-26T13:51:52;10.50;10.50;7.00
56495;PMS5003;42804;55.762;38.084;2023-06-26T13:54:26;10.00;10.00;7.00
56495;PMS5003;42804;55.762;38.084;2023-06-26T13:56:59;9.25;8.75;6.00
56495;PMS5003;42804;55.762;38.084;2023-06-26T13:59:37;9.75;9.75;6.00
56495;PMS5003;42804;55.762;38.084;2023-06-26T14:02:07;15.25;15.00;8.75
56495;PMS5003;42804;55.762;38.084;2023-06-26T14:04:36;13.50;11.75;7.50
56495;PMS5003;42804;55.762;38.084;2023-06-26T14:07:05;10.25;10.00;7.25
56495;PMS5003;42804;55.762;38.084;2023-06-26T14:09:35;9.00;9.00;6.00
56495;PMS5003;42804;55.762;38.084;2023-06-26T14:12:04;9.50;8.75;6.50
56495;PMS5003;42804;55.762;38.084;2023-06-26T14:14:50;6.50;6.00;2.75
56495;PMS5003;42804;55.762;38.084;2023-06-26T14:17:18;9.25;9.00;6.00
56495;PMS5003;42804;55.762;38.084;2023-06-26T14:19:46;9.25;9.00;6.50
56495;PMS5003;42804;55.762;38.084;2023-06-26T14:22:14;9.50;9.50;7.00
56495;PMS5003;42804;55.762;38.084;2023-06-26T14:24:44;10.25;9.75;7.00
56495;PMS5003;42804;55.762;38.084;2023-06-26T14:27:12;10.50;10.25;7.00
56495;PMS5003;42804;55.762;38.084;2023-06-26T14:29:40;7.00;7.00;5.00
56495;PMS5003;42804;55.762;38.084;2023-06-26T14:32:09;10.75;10.25;6.00
56495;PMS5003;42804;55.762;38.084;2023-06-26T14:34:37;10.50;10.50;7.00
56495;PMS5003;42804;55.762;38.084;2023-06-26T14:37:05;9.25;9.25;6.75
56495;PMS5003;42804;55.762;38.084;2023-06-26T14:42:22;8.25;8.00;5.00
56495;PMS5003;42804;55.762;38.084;2023-06-26T14:44:50;9.00;9.00;7.00
56495;PMS5003;42804;55.762;38.084;2023-06-26T14:47:19;8.25;8.25;6.50
56495;PMS5003;42804;55.762;38.084;2023-06-26T14:49:47;10.00;9.25;6.00
56495;PMS5003;42804;55.762;38.084;2023-06-26T14:52:15;10.00;10.00;7.00
56495;PMS5003;42804;55.762;38.084;2023-06-26T14:54:45;9.00;7.00;4.00
56495;PMS5003;42804;55.762;38.084;2023-06-26T14:57:13;9.00;9.00;6.75